Time,TemperatureF,DewpointF,PressureIn,WindDirection,WindDirectionDegrees,WindSpeedMPH,WindSpeedGustMPH,Humidity,HourlyPrecipIn,Conditions,Clouds,dailyrainin,SoftwareType,DateUTC
2013-06-10 00:01:00,60.9,57.7,30.19,WSW,239,0.0,0.0,89,0.00,CLR,,0.00,WeatherDisplay:10.37,2013-06-10 04:01:00,
2013-06-10 00:03:00,60.8,57.9,30.19,WSW,239,0.0,0.0,90,0.00,CLR,,0.00,WeatherDisplay:10.37,2013-06-10 04:03:00,
2013-06-10 00:04:00,60.7,57.8,30.19,WSW,239,0.0,0.0,90,0.00,CLR,,0.00,WeatherDisplay:10.37,2013-06-10 04:04:00,
2013-06-10 00:08:00,60.6,57.7,30.19,WSW,239,0.0,0.0,90,0.00,CLR,,0.00,WeatherDisplay:10.37,2013-06-10 04:08:00,
2013-06-10 00:12:00,60.6,57.7,30.19,WSW,239,0.0,0.0,90,0.00,CLR,,0.00,WeatherDisplay:10.37,2013-06-10 04:12:00,
2013-06-10 00:17:00,60.5,57.6,30.19,WSW,239,0.0,0.0,90,0.00,CLR,,0.00,WeatherDisplay:10.37,2013-06-10 04:17:00,
2013-06-10 00:22:00,60.3,57.4,30.19,WSW,239,0.0,0.0,90,0.00,CLR,,0.00,WeatherDisplay:10.37,2013-06-10 04:22:00,
2013-06-10 00:27:00,60.5,57.9,30.19,WSW,239,0.0,0.0,91,0.00,CLR,,0.00,WeatherDisplay:10.37,2013-06-10 04:27:00,
2013-06-10 00:32:00,60.4,57.8,30.19,WSW,239,0.0,0.0,91,0.00,CLR,,0.00,WeatherDisplay:10.37,2013-06-10 04:32:00,
2013-06-10 00:37:00,60.0,57.4,30.19,WSW,239,0.0,0.0,91,0.00,CLR,,0.00,WeatherDisplay:10.37,2013-06-10 04:37:00,
2013-06-10 00:42:00,60.0,57.4,30.19,WSW,239,0.0,0.0,91,0.00,CLR,,0.00,WeatherDisplay:10.37,2013-06-10 04:42:00,
2013-06-10 00:47:00,59.9,57.3,30.18,WSW,239,0.0,0.0,91,0.00,CLR,,0.00,WeatherDisplay:10.37,2013-06-10 04:47:00,
2013-06-10 00:52:00,59.9,57.6,30.18,WSW,239,0.0,0.0,92,0.00,CLR,,0.00,WeatherDisplay:10.37,2013-06-10 04:52:00,
2013-06-10 00:57:00,59.8,57.5,30.18,WSW,239,0.0,0.0,92,0.00,CLR,,0.00,WeatherDisplay:10.37,2013-06-10 04:57:00,
2013-06-10 01:02:00,59.9,57.6,30.19,WSW,239,0.0,0.0,92,0.00,CLR,,0.00,WeatherDisplay:10.37,2013-06-10 05:02:00,
2013-06-10 01:07:00,59.9,57.6,30.19,WSW,239,0.0,0.0,92,0.00,CLR,,0.00,WeatherDisplay:10.37,2013-06-10 05:07:00,
2013-06-10 01:12:00,59.9,57.6,30.19,WSW,239,0.0,0.0,92,0.00,CLR,,0.00,WeatherDisplay:10.37,2013-06-10 05:12:00,
2013-06-10 01:17:00,59.8,57.5,30.18,WSW,239,0.0,0.0,92,0.00,CLR,,0.00,WeatherDisplay:10.37,2013-06-10 05:17:00,
2013-06-10 01:22:00,60.0,58.0,30.19,WSW,239,0.0,0.0,93,0.00,CLR,,0.00,WeatherDisplay:10.37,2013-06-10 05:22:00,
2013-06-10 01:27:00,59.8,57.8,30.19,WSW,239,0.0,0.0,93,0.00,CLR,,0.00,WeatherDisplay:10.37,2013-06-10 05:27:00,
2013-06-10 01:32:00,59.8,57.8,30.19,WSW,239,0.0,0.0,93,0.00,CLR,,0.00,WeatherDisplay:10.37,2013-06-10 05:32:00,
2013-06-10 01:37:00,59.9,57.9,30.19,WSW,239,0.0,0.0,93,0.00,CLR,,0.00,WeatherDisplay:10.37,2013-06-10 05:37:00,
2013-06-10 01:42:00,60.0,58.0,30.19,WSW,239,0.0,0.0,93,0.00,CLR,,0.00,WeatherDisplay:10.37,2013-06-10 05:42:00,
2013-06-10 01:47:00,59.9,57.9,30.19,WSW,239,0.0,0.0,93,0.00,CLR,,0.00,WeatherDisplay:10.37,2013-06-10 05:47:00,
2013-06-10 01:52:00,60.0,58.0,30.19,WSW,239,0.0,0.0,93,0.00,CLR,,0.00,WeatherDisplay:10.37,2013-06-10 05:52:00,
2013-06-10 01:57:00,60.3,58.6,30.19,West,274,1.4,1.4,94,0.00,CLR,,0.00,WeatherDisplay:10.37,2013-06-10 05:57:00,
2013-06-10 02:02:00,60.2,58.5,30.19,WSW,254,0.0,0.0,94,0.00,CLR,,0.00,WeatherDisplay:10.37,2013-06-10 06:02:00,
2013-06-10 02:07:00,60.4,58.7,30.19,WSW,254,0.0,0.0,94,0.00,CLR,,0.00,WeatherDisplay:10.37,2013-06-10 06:07:00,
2013-06-10 02:12:00,60.5,58.8,30.19,WSW,254,0.0,0.0,94,0.00,CLR,,0.00,WeatherDisplay:10.37,2013-06-10 06:12:00,
2013-06-10 02:17:00,60.3,58.6,30.19,WSW,254,0.0,0.0,94,0.00,CLR,,0.00,WeatherDisplay:10.37,2013-06-10 06:17:00,
2013-06-10 02:22:00,60.2,58.5,30.19,WSW,254,0.0,0.0,94,0.00,CLR,,0.00,WeatherDisplay:10.37,2013-06-10 06:22:00,
2013-06-10 02:27:00,60.8,59.1,30.19,WSW,254,0.0,0.0,94,0.00,CLR,,0.00,WeatherDisplay:10.37,2013-06-10 06:27:00,
2013-06-10 02:32:00,60.4,58.7,30.19,WSW,254,0.0,0.0,94,0.00,BKN,,0.00,WeatherDisplay:10.37,2013-06-10 06:32:00,
2013-06-10 02:37:00,60.4,58.4,30.18,WSW,254,0.0,0.0,93,0.00,BKN,,0.00,WeatherDisplay:10.37,2013-06-10 06:37:00,
2013-06-10 02:42:00,60.3,58.3,30.18,WSW,254,0.0,0.0,93,0.00,BKN,,0.00,WeatherDisplay:10.37,2013-06-10 06:42:00,
2013-06-10 02:47:00,60.2,58.5,30.18,WSW,254,0.0,0.0,94,0.00,BKN,,0.00,WeatherDisplay:10.37,2013-06-10 06:47:00,
2013-06-10 02:52:00,60.2,58.5,30.18,WSW,254,0.0,0.0,94,0.00,BKN,,0.00,WeatherDisplay:10.37,2013-06-10 06:52:00,
2013-06-10 02:57:00,60.0,58.3,30.18,WSW,254,0.0,0.0,94,0.00,BKN,,0.00,WeatherDisplay:10.37,2013-06-10 06:57:00,
2013-06-10 03:02:00,60.1,58.4,30.18,WSW,254,0.0,0.0,94,0.00,BKN,,0.00,WeatherDisplay:10.37,2013-06-10 07:02:00,
2013-06-10 03:07:00,59.9,58.2,30.18,WSW,254,0.0,0.0,94,0.00,BKN,,0.00,WeatherDisplay:10.37,2013-06-10 07:07:00,
2013-06-10 03:12:00,60.0,58.3,30.18,WNW,302,2.3,2.3,94,0.00,BKN,,0.00,WeatherDisplay:10.37,2013-06-10 07:12:00,
2013-06-10 03:17:00,60.4,58.7,30.18,NNE,28,0.0,0.0,94,0.00,BKN,,0.00,WeatherDisplay:10.37,2013-06-10 07:17:00,
2013-06-10 03:22:00,60.1,58.4,30.18,NNE,28,0.0,0.0,94,0.00,OVC,,0.00,WeatherDisplay:10.37,2013-06-10 07:22:00,
2013-06-10 03:27:00,59.9,58.2,30.18,NNE,28,0.0,0.0,94,0.00,OVC,,0.00,WeatherDisplay:10.37,2013-06-10 07:27:00,
2013-06-10 03:32:00,59.9,58.2,30.18,NNE,28,0.0,0.0,94,0.00,OVC,,0.00,WeatherDisplay:10.37,2013-06-10 07:32:00,
2013-06-10 03:37:00,59.9,58.2,30.18,NNE,28,0.0,0.0,94,0.00,OVC,,0.00,WeatherDisplay:10.37,2013-06-10 07:37:00,
2013-06-10 03:42:00,59.8,58.1,30.18,NNE,28,0.0,0.0,94,0.00,OVC,,0.00,WeatherDisplay:10.37,2013-06-10 07:42:00,
2013-06-10 03:47:00,59.7,58.0,30.17,NNE,28,0.0,0.0,94,0.00,OVC,,0.00,WeatherDisplay:10.37,2013-06-10 07:47:00,
2013-06-10 03:52:00,59.8,58.1,30.17,NNE,28,0.0,0.0,94,0.00,OVC,,0.00,WeatherDisplay:10.37,2013-06-10 07:52:00,
2013-06-10 03:57:00,59.5,57.8,30.17,WNW,285,1.2,1.2,94,0.00,OVC,,0.00,WeatherDisplay:10.37,2013-06-10 07:57:00,
2013-06-10 04:02:00,59.5,57.8,30.18,West,278,0.0,0.0,94,0.00,OVC,,0.00,WeatherDisplay:10.37,2013-06-10 08:02:00,
2013-06-10 04:07:00,59.5,57.8,30.17,West,270,2.3,2.3,94,0.00,OVC,,0.00,WeatherDisplay:10.37,2013-06-10 08:07:00,
2013-06-10 04:12:00,59.5,57.8,30.18,West,271,1.9,1.9,94,0.00,OVC,,0.00,WeatherDisplay:10.37,2013-06-10 08:12:00,
2013-06-10 04:17:00,59.4,57.7,30.18,WSW,256,0.0,0.0,94,0.00,OVC,,0.00,WeatherDisplay:10.37,2013-06-10 08:17:00,
2013-06-10 04:22:00,59.5,57.8,30.18,WSW,256,0.0,0.0,94,0.00,OVC,,0.00,WeatherDisplay:10.37,2013-06-10 08:22:00,
2013-06-10 04:27:00,59.6,57.9,30.18,WSW,256,0.0,0.0,94,0.00,OVC,,0.00,WeatherDisplay:10.37,2013-06-10 08:27:00,
2013-06-10 04:32:00,59.5,57.8,30.18,WSW,256,0.0,0.0,94,0.00,OVC,,0.00,WeatherDisplay:10.37,2013-06-10 08:32:00,
2013-06-10 04:37:00,59.4,57.7,30.18,WSW,256,0.0,0.0,94,0.00,CLR,,0.00,WeatherDisplay:10.37,2013-06-10 08:37:00,
2013-06-10 04:42:00,59.6,57.9,30.18,WSW,256,0.0,0.0,94,0.00,CLR,,0.00,WeatherDisplay:10.37,2013-06-10 08:42:00,
2013-06-10 04:47:00,59.7,58.0,30.18,WSW,256,0.0,0.0,94,0.00,CLR,,0.00,WeatherDisplay:10.37,2013-06-10 08:47:00,
2013-06-10 04:52:00,59.4,57.7,30.18,WSW,256,0.0,0.0,94,0.00,CLR,,0.00,WeatherDisplay:10.37,2013-06-10 08:52:00,
2013-06-10 04:57:00,59.3,57.6,30.17,WSW,256,0.0,0.0,94,0.00,CLR,,0.00,WeatherDisplay:10.37,2013-06-10 08:57:00,
2013-06-10 05:02:00,59.4,57.7,30.17,WSW,256,0.0,0.0,94,0.00,CLR,,0.00,WeatherDisplay:10.37,2013-06-10 09:02:00,
2013-06-10 05:07:00,59.3,57.6,30.18,WSW,256,0.0,0.0,94,0.00,CLR,,0.00,WeatherDisplay:10.37,2013-06-10 09:07:00,
2013-06-10 05:12:00,59.3,57.6,30.18,WSW,248,1.2,0.0,94,0.00,CLR,,0.00,WeatherDisplay:10.37,2013-06-10 09:12:00,
2013-06-10 05:17:00,59.5,57.8,30.17,WSW,248,0.0,0.0,94,0.00,CLR,,0.00,WeatherDisplay:10.37,2013-06-10 09:17:00,
2013-06-10 05:22:00,59.4,57.7,30.18,WSW,248,0.0,0.0,94,0.00,BKN,,0.00,WeatherDisplay:10.37,2013-06-10 09:22:00,
2013-06-10 05:27:00,59.4,57.7,30.17,WSW,243,0.0,0.0,94,0.00,BKN,,0.00,WeatherDisplay:10.37,2013-06-10 09:27:00,
2013-06-10 05:33:00,59.6,57.9,30.17,WSW,243,0.0,0.0,94,0.00,BKN,,0.00,WeatherDisplay:10.37,2013-06-10 09:33:00,
2013-06-10 05:38:00,59.7,58.0,30.17,WSW,243,0.0,0.0,94,0.00,BKN,,0.00,WeatherDisplay:10.37,2013-06-10 09:38:00,
2013-06-10 05:43:00,59.5,57.8,30.17,WSW,243,0.0,0.0,94,0.00,BKN,,0.00,WeatherDisplay:10.37,2013-06-10 09:43:00,
2013-06-10 05:48:00,59.5,57.5,30.17,WSW,243,0.0,0.0,93,0.00,BKN,,0.00,WeatherDisplay:10.37,2013-06-10 09:48:00,
2013-06-10 05:53:00,59.6,57.9,30.17,WSW,243,0.0,0.0,94,0.00,BKN,,0.00,WeatherDisplay:10.37,2013-06-10 09:53:00,
2013-06-10 05:58:00,59.7,58.0,30.17,WSW,243,0.0,0.0,94,0.00,BKN,,0.00,WeatherDisplay:10.37,2013-06-10 09:58:00,
2013-06-10 06:03:00,59.7,57.7,30.17,WSW,243,0.0,0.0,93,0.00,BKN,,0.00,WeatherDisplay:10.37,2013-06-10 10:03:00,
2013-06-10 06:08:00,59.7,57.7,30.17,WSW,243,0.0,0.0,93,0.00,BKN,,0.00,WeatherDisplay:10.37,2013-06-10 10:08:00,
2013-06-10 06:13:00,59.8,57.8,30.17,WSW,243,0.0,0.0,93,0.00,BKN,,0.00,WeatherDisplay:10.37,2013-06-10 10:13:00,
2013-06-10 06:18:00,59.9,57.9,30.17,WSW,243,0.0,0.0,93,0.00,BKN,,0.00,WeatherDisplay:10.37,2013-06-10 10:18:00,
2013-06-10 06:23:00,59.7,57.7,30.18,WSW,243,0.0,0.0,93,0.00,BKN,,0.00,WeatherDisplay:10.37,2013-06-10 10:23:00,
2013-06-10 06:28:00,60.0,58.0,30.17,WSW,243,0.0,0.0,93,0.00,BKN,,0.00,WeatherDisplay:10.37,2013-06-10 10:28:00,
2013-06-10 06:33:00,60.0,58.0,30.17,WSW,243,0.0,0.0,93,0.00,BKN,,0.00,WeatherDisplay:10.37,2013-06-10 10:33:00,
2013-06-10 06:38:00,60.2,58.2,30.17,WSW,243,0.0,0.0,93,0.00,BKN,,0.00,WeatherDisplay:10.37,2013-06-10 10:38:00,
2013-06-10 06:43:00,60.3,58.0,30.17,WSW,243,0.0,0.0,92,0.00,BKN,,0.00,WeatherDisplay:10.37,2013-06-10 10:43:00,
2013-06-10 06:48:00,60.6,58.3,30.17,WSW,243,0.0,0.0,92,0.00,BKN,,0.00,WeatherDisplay:10.37,2013-06-10 10:48:00,
2013-06-10 06:53:00,60.7,58.4,30.17,WSW,243,0.0,0.0,92,0.00,OVC,,0.00,WeatherDisplay:10.37,2013-06-10 10:53:00,
2013-06-10 06:58:00,60.9,58.6,30.17,WSW,243,0.0,0.0,92,0.00,OVC,,0.00,WeatherDisplay:10.37,2013-06-10 10:58:00,
2013-06-10 07:03:00,61.1,58.8,30.17,WSW,243,0.0,0.0,92,0.00,OVC,,0.00,WeatherDisplay:10.37,2013-06-10 11:03:00,
2013-06-10 07:08:00,61.4,59.1,30.17,WSW,243,0.0,0.0,92,0.00,OVC,,0.00,WeatherDisplay:10.37,2013-06-10 11:08:00,
2013-06-10 07:13:00,61.7,59.1,30.17,WSW,243,0.0,0.0,91,0.00,OVC,,0.00,WeatherDisplay:10.37,2013-06-10 11:13:00,
2013-06-10 07:18:00,61.6,59.0,30.17,WSW,243,0.0,0.0,91,0.00,OVC,,0.00,WeatherDisplay:10.37,2013-06-10 11:18:00,
2013-06-10 07:23:00,61.8,59.2,30.17,WSW,243,0.0,0.0,91,0.00,OVC,,0.00,WeatherDisplay:10.37,2013-06-10 11:23:00,
2013-06-10 07:28:00,62.1,59.2,30.17,WSW,243,0.0,0.0,90,0.00,OVC,,0.00,WeatherDisplay:10.37,2013-06-10 11:28:00,
2013-06-10 07:33:00,62.3,59.4,30.17,WSW,243,0.0,0.0,90,0.00,OVC,,0.00,WeatherDisplay:10.37,2013-06-10 11:33:00,
2013-06-10 07:38:00,62.3,59.4,30.17,WSW,243,0.0,0.0,90,0.00,OVC,,0.00,WeatherDisplay:10.37,2013-06-10 11:38:00,
2013-06-10 07:43:00,62.7,60.1,30.17,WSW,243,0.0,0.0,91,0.00,OVC,,0.00,WeatherDisplay:10.37,2013-06-10 11:43:00,
2013-06-10 07:48:00,62.4,59.5,30.17,WSW,243,0.0,0.0,90,0.00,OVC,,0.00,WeatherDisplay:10.37,2013-06-10 11:48:00,
2013-06-10 07:53:00,62.6,59.4,30.17,WSW,243,0.0,0.0,89,0.00,OVC,,0.00,WeatherDisplay:10.37,2013-06-10 11:53:00,
2013-06-10 07:58:00,62.8,59.9,30.17,WSW,243,0.0,0.0,90,0.00,OVC,,0.00,WeatherDisplay:10.37,2013-06-10 11:58:00,
2013-06-10 08:03:00,63.1,60.2,30.17,WSW,243,0.0,0.0,90,0.00,OVC,,0.00,WeatherDisplay:10.37,2013-06-10 12:03:00,
2013-06-10 08:08:00,63.0,60.1,30.17,WSW,243,0.0,0.0,90,0.00,OVC,,0.00,WeatherDisplay:10.37,2013-06-10 12:08:00,
2013-06-10 08:13:00,63.1,60.2,30.16,WSW,243,0.0,0.0,90,0.00,OVC,,0.00,WeatherDisplay:10.37,2013-06-10 12:13:00,
2013-06-10 08:18:00,63.1,60.2,30.16,WSW,243,0.0,0.0,90,0.00,OVC,,0.00,WeatherDisplay:10.37,2013-06-10 12:18:00,
2013-06-10 08:23:00,63.0,60.1,30.17,WSW,243,0.0,0.0,90,0.00,BKN,,0.00,WeatherDisplay:10.37,2013-06-10 12:23:00,
2013-06-10 08:28:00,63.0,60.1,30.16,WSW,243,0.0,0.0,90,0.00,BKN,,0.00,WeatherDisplay:10.37,2013-06-10 12:28:00,
2013-06-10 08:33:00,63.0,60.1,30.16,WSW,243,0.0,0.0,90,0.00,BKN,,0.00,WeatherDisplay:10.37,2013-06-10 12:33:00,
2013-06-10 08:38:00,63.0,60.1,30.16,WSW,243,0.0,0.0,90,0.00,BKN,,0.00,WeatherDisplay:10.37,2013-06-10 12:38:00,
2013-06-10 08:43:00,63.2,60.6,30.16,WSW,243,0.0,0.0,91,0.00,BKN,,0.00,WeatherDisplay:10.37,2013-06-10 12:43:00,
2013-06-10 08:48:00,63.1,60.5,30.16,WSW,243,0.0,0.0,91,0.00,BKN,,0.00,WeatherDisplay:10.37,2013-06-10 12:48:00,
2013-06-10 08:53:00,63.2,60.3,30.16,WSW,243,0.0,0.0,90,0.00,BKN,,0.00,WeatherDisplay:10.37,2013-06-10 12:53:00,
2013-06-10 08:58:00,63.6,61.0,30.16,WSW,243,0.0,0.0,91,0.00,BKN,,0.00,WeatherDisplay:10.37,2013-06-10 12:58:00,
2013-06-10 09:03:00,63.7,60.8,30.16,WSW,243,0.0,0.0,90,0.00,BKN,,0.00,WeatherDisplay:10.37,2013-06-10 13:03:00,
2013-06-10 09:08:00,63.8,60.8,30.16,WSW,243,0.0,0.0,90,0.00,BKN,,0.00,WeatherDisplay:10.37,2013-06-10 13:08:00,
2013-06-10 09:13:00,63.8,60.8,30.16,WSW,243,0.0,0.0,90,0.00,BKN,,0.00,WeatherDisplay:10.37,2013-06-10 13:13:00,
2013-06-10 09:18:00,64.0,61.0,30.16,WSW,243,0.0,0.0,90,0.00,BKN,,0.00,WeatherDisplay:10.37,2013-06-10 13:18:00,
2013-06-10 09:23:00,64.3,61.3,30.16,WSW,243,0.0,0.0,90,0.00,BKN,,0.00,WeatherDisplay:10.37,2013-06-10 13:23:00,
2013-06-10 09:28:00,63.8,60.8,30.16,WSW,243,0.0,0.0,90,0.00,BKN,,0.00,WeatherDisplay:10.37,2013-06-10 13:28:00,
2013-06-10 09:33:00,64.1,61.1,30.16,WSW,243,0.0,0.0,90,0.00,BKN,,0.00,WeatherDisplay:10.37,2013-06-10 13:33:00,
2013-06-10 09:38:00,64.1,61.1,30.16,WSW,243,0.0,0.0,90,0.00,BKN,,0.00,WeatherDisplay:10.37,2013-06-10 13:38:00,
2013-06-10 09:43:00,64.2,61.2,30.16,WSW,243,0.0,0.0,90,0.00,BKN,,0.00,WeatherDisplay:10.37,2013-06-10 13:43:00,
2013-06-10 09:48:00,64.0,60.7,30.16,WSW,243,0.0,0.0,89,0.00,BKN,,0.00,WeatherDisplay:10.37,2013-06-10 13:48:00,
2013-06-10 09:53:00,64.0,61.0,30.16,WSW,243,0.0,0.0,90,0.00,BKN,,0.00,WeatherDisplay:10.37,2013-06-10 13:53:00,
2013-06-10 09:58:00,64.0,61.0,30.16,WSW,243,0.0,0.0,90,0.00,BKN,,0.00,WeatherDisplay:10.37,2013-06-10 13:58:00,
2013-06-10 10:03:00,64.1,61.1,30.16,WSW,243,0.0,0.0,90,0.00,BKN,,0.00,WeatherDisplay:10.37,2013-06-10 14:03:00,
2013-06-10 10:08:00,64.3,61.0,30.16,WSW,243,0.0,0.0,89,0.00,BKN,,0.00,WeatherDisplay:10.37,2013-06-10 14:08:00,
2013-06-10 10:13:00,64.6,60.7,30.16,SSW,193,1.2,0.0,87,0.00,BKN,,0.00,WeatherDisplay:10.37,2013-06-10 14:13:00,
2013-06-10 10:19:00,64.8,60.6,30.16,SE,134,0.0,0.0,86,0.00,BKN,,0.00,WeatherDisplay:10.37,2013-06-10 14:19:00,
2013-06-10 10:24:00,65.3,60.7,30.15,SE,134,0.0,0.0,85,0.00,BKN,,0.00,WeatherDisplay:10.37,2013-06-10 14:24:00,
2013-06-10 10:29:00,66.1,61.2,30.15,East,92,0.0,0.5,84,0.00,BKN,,0.00,WeatherDisplay:10.37,2013-06-10 14:29:00,
2013-06-10 10:34:00,66.1,60.8,30.14,East,90,2.3,2.3,83,0.00,BKN,,0.00,WeatherDisplay:10.37,2013-06-10 14:34:00,
2013-06-10 10:40:00,66.6,61.3,30.14,East,90,0.0,0.2,83,0.00,BKN,,0.00,WeatherDisplay:10.37,2013-06-10 14:40:00,
2013-06-10 10:45:00,66.8,61.2,30.14,ENE,75,3.5,3.5,82,0.00,BKN,,0.00,WeatherDisplay:10.37,2013-06-10 14:45:00,
2013-06-10 10:50:00,67.2,61.6,30.14,ESE,117,0.0,0.0,82,0.00,BKN,,0.00,WeatherDisplay:10.37,2013-06-10 14:50:00,
2013-06-10 10:55:00,67.3,61.7,30.14,ESE,117,0.0,0.0,82,0.00,BKN,,0.00,WeatherDisplay:10.37,2013-06-10 14:55:00,
2013-06-10 11:00:00,67.1,61.5,30.14,ESE,110,0.0,0.0,82,0.00,BKN,,0.00,WeatherDisplay:10.37,2013-06-10 15:00:00,
2013-06-10 11:05:00,66.9,61.6,30.14,ENE,68,1.2,1.2,83,0.00,BKN,,0.00,WeatherDisplay:10.37,2013-06-10 15:05:00,
2013-06-10 11:10:00,67.0,62.0,30.14,ENE,72,0.0,0.0,84,0.00,BKN,,0.00,WeatherDisplay:10.37,2013-06-10 15:10:00,
2013-06-10 11:15:00,66.9,61.9,30.14,ENE,72,0.0,0.0,84,0.00,BKN,,0.00,WeatherDisplay:10.37,2013-06-10 15:15:00,
2013-06-10 11:20:00,66.7,61.7,30.13,East,96,4.6,4.6,84,0.00,OVC,,0.00,WeatherDisplay:10.37,2013-06-10 15:20:00,
2013-06-10 11:25:00,66.9,62.3,30.13,ENE,73,0.0,0.0,85,0.00,OVC,,0.00,WeatherDisplay:10.37,2013-06-10 15:25:00,
2013-06-10 11:30:00,67.3,62.7,30.13,NE,52,1.2,1.2,85,0.00,OVC,,0.00,WeatherDisplay:10.37,2013-06-10 15:30:00,
2013-06-10 11:35:00,67.6,63.3,30.13,NE,55,2.3,2.3,86,0.00,OVC,,0.00,WeatherDisplay:10.37,2013-06-10 15:35:00,
2013-06-10 11:40:00,67.8,63.2,30.12,East,97,4.6,4.6,85,0.00,OVC,,0.00,WeatherDisplay:10.37,2013-06-10 15:40:00,
2013-06-10 11:45:00,68.3,63.7,30.12,East,93,3.5,3.5,85,0.00,OVC,,0.00,WeatherDisplay:10.37,2013-06-10 15:45:00,
2013-06-10 11:50:00,68.5,63.5,30.12,SE,140,4.6,4.6,84,0.00,OVC,,0.00,WeatherDisplay:10.37,2013-06-10 15:50:00,
2013-06-10 11:55:00,68.6,63.3,30.12,East,92,2.3,2.3,83,0.00,OVC,,0.00,WeatherDisplay:10.37,2013-06-10 15:55:00,
2013-06-10 12:00:00,68.8,63.1,30.12,ESE,104,3.5,3.5,82,0.00,OVC,,0.00,WeatherDisplay:10.37,2013-06-10 16:00:00,
2013-06-10 12:05:00,68.8,63.1,30.12,SE,145,3.5,3.5,82,0.00,BKN,,0.00,WeatherDisplay:10.37,2013-06-10 16:05:00,
2013-06-10 12:10:00,69.0,63.3,30.12,ESE,112,0.0,0.0,82,0.00,BKN,,0.00,WeatherDisplay:10.37,2013-06-10 16:10:00,
2013-06-10 12:15:00,69.2,63.9,30.12,ESE,112,0.0,0.0,83,0.00,BKN,,0.00,WeatherDisplay:10.37,2013-06-10 16:15:00,
2013-06-10 12:20:00,69.4,63.7,30.11,SSE,152,4.6,4.6,82,0.00,BKN,,0.00,WeatherDisplay:10.37,2013-06-10 16:20:00,
2013-06-10 12:25:00,69.3,63.3,30.11,East,96,3.5,3.5,81,0.00,BKN,,0.00,WeatherDisplay:10.37,2013-06-10 16:25:00,
2013-06-10 12:30:00,69.7,64.0,30.11,ESE,119,3.5,3.5,82,0.00,BKN,,0.00,WeatherDisplay:10.37,2013-06-10 16:30:00,
2013-06-10 12:35:00,69.7,64.0,30.11,East,88,3.5,3.5,82,0.00,BKN,,0.00,WeatherDisplay:10.37,2013-06-10 16:35:00,
2013-06-10 12:40:00,70.1,63.7,30.10,ENE,72,6.9,6.9,80,0.00,BKN,,0.00,WeatherDisplay:10.37,2013-06-10 16:40:00,
2013-06-10 12:45:00,70.3,63.5,30.10,ESE,123,5.8,5.8,79,0.00,BKN,,0.00,WeatherDisplay:10.37,2013-06-10 16:45:00,
2013-06-10 12:50:00,70.2,63.4,30.10,ESE,117,3.5,3.5,79,0.00,BKN,,0.00,WeatherDisplay:10.37,2013-06-10 16:50:00,
2013-06-10 12:55:00,70.4,63.6,30.10,ENE,72,2.3,2.3,79,0.00,BKN,,0.00,WeatherDisplay:10.37,2013-06-10 16:55:00,
2013-06-10 13:00:00,70.3,63.5,30.10,SE,127,3.5,3.5,79,0.00,BKN,,0.00,WeatherDisplay:10.37,2013-06-10 17:00:00,
2013-06-10 13:05:00,70.2,64.1,30.10,SE,131,6.9,6.9,81,0.00,OVC,,0.00,WeatherDisplay:10.37,2013-06-10 17:05:00,
2013-06-10 13:10:00,70.0,63.9,30.09,SE,145,6.9,6.9,81,0.00,OVC,,0.00,WeatherDisplay:10.37,2013-06-10 17:10:00,
2013-06-10 13:15:00,69.8,63.7,30.09,ESE,114,3.5,3.5,81,0.00,OVC,,0.00,WeatherDisplay:10.37,2013-06-10 17:15:00,
2013-06-10 13:20:00,69.6,63.5,30.09,South,182,4.6,4.6,81,0.00,OVC,,0.00,WeatherDisplay:10.37,2013-06-10 17:20:00,
2013-06-10 13:25:00,69.4,63.4,30.09,East,92,6.9,6.9,81,0.00,OVC,,0.00,WeatherDisplay:10.37,2013-06-10 17:25:00,
2013-06-10 13:30:00,69.3,63.3,30.09,East,79,4.6,4.6,81,0.00,OVC,,0.00,WeatherDisplay:10.37,2013-06-10 17:30:00,
2013-06-10 13:35:00,69.5,63.8,30.09,SE,138,3.5,3.5,82,0.00,-RA,,0.00,WeatherDisplay:10.37,2013-06-10 17:35:00,
2013-06-10 13:40:00,69.2,63.5,30.09,ENE,78,2.3,2.3,82,0.00,-RA,,0.00,WeatherDisplay:10.37,2013-06-10 17:40:00,
2013-06-10 13:45:00,69.0,63.7,30.08,SE,136,3.5,3.5,83,0.00,-RA,,0.00,WeatherDisplay:10.37,2013-06-10 17:45:00,
2013-06-10 13:50:00,68.8,63.8,30.08,ESE,116,4.6,4.6,84,0.00,-RA,,0.00,WeatherDisplay:10.37,2013-06-10 17:50:00,
2013-06-10 13:55:00,68.9,63.9,30.08,ENE,69,6.9,6.9,84,0.00,-RA,,0.00,WeatherDisplay:10.37,2013-06-10 17:55:00,
2013-06-10 14:00:00,68.8,64.1,30.08,ESE,109,4.6,4.6,85,0.00,-RA,,0.00,WeatherDisplay:10.37,2013-06-10 18:00:00,
2013-06-10 14:05:00,68.7,64.4,30.08,ESE,102,6.9,6.9,86,0.00,-RA,,0.00,WeatherDisplay:10.37,2013-06-10 18:05:00,
2013-06-10 14:10:00,68.5,64.2,30.08,ESE,117,4.6,4.6,86,0.01,-RA,,0.01,WeatherDisplay:10.37,2013-06-10 18:10:00,
2013-06-10 14:15:00,68.4,64.4,30.08,SSE,151,5.8,5.8,87,0.01,-RA,,0.01,WeatherDisplay:10.37,2013-06-10 18:15:00,
2013-06-10 14:20:00,67.8,63.5,30.08,ESE,114,6.8,6.8,86,0.02,-RA,,0.02,WeatherDisplay:10.37,2013-06-10 18:20:00,
2013-06-10 14:26:00,67.6,64.0,30.08,East,99,5.8,5.8,88,0.03,-RA,,0.03,WeatherDisplay:10.37,2013-06-10 18:26:00,
2013-06-10 14:31:00,67.3,64.0,30.08,SSE,151,3.5,3.5,89,0.04,-RA,,0.04,WeatherDisplay:10.37,2013-06-10 18:31:00,
2013-06-10 14:36:00,67.1,64.1,30.07,ESE,104,5.8,5.8,90,0.05,-RA,,0.05,WeatherDisplay:10.37,2013-06-10 18:36:00,
2013-06-10 14:41:00,67.2,64.2,30.08,SSE,147,3.5,3.5,90,0.05,-RA,,0.05,WeatherDisplay:10.37,2013-06-10 18:41:00,
2013-06-10 14:46:00,66.8,63.8,30.07,SSW,202,6.9,6.9,90,0.06,-RA,,0.06,WeatherDisplay:10.37,2013-06-10 18:46:00,
2013-06-10 14:51:00,66.8,64.1,30.07,ESE,109,3.5,3.5,91,0.06,-RA,,0.06,WeatherDisplay:10.37,2013-06-10 18:51:00,
2013-06-10 14:56:00,66.5,64.1,30.07,ESE,110,5.8,5.8,92,0.06,-RA,,0.06,WeatherDisplay:10.37,2013-06-10 18:56:00,
2013-06-10 15:01:00,66.1,63.7,30.07,SSE,148,4.6,4.6,92,0.06,-RA,,0.06,WeatherDisplay:10.37,2013-06-10 19:01:00,
2013-06-10 15:06:00,66.1,63.7,30.07,SSE,157,9.2,9.2,92,0.07,-RA,,0.07,WeatherDisplay:10.37,2013-06-10 19:06:00,
2013-06-10 15:11:00,66.1,64.1,30.07,ESE,106,5.3,5.3,93,0.06,-RA,,0.07,WeatherDisplay:10.37,2013-06-10 19:11:00,
2013-06-10 15:16:00,65.9,63.9,30.07,SE,137,9.2,9.2,93,0.06,-RA,,0.07,WeatherDisplay:10.37,2013-06-10 19:16:00,
2013-06-10 15:21:00,65.8,63.8,30.07,East,95,4.6,4.6,93,0.07,-RA,,0.09,WeatherDisplay:10.37,2013-06-10 19:21:00,
2013-06-10 15:26:00,65.9,63.9,30.07,SE,137,2.3,2.3,93,0.08,-RA,,0.11,WeatherDisplay:10.37,2013-06-10 19:26:00,
2013-06-10 15:31:00,65.6,63.6,30.06,ESE,103,8.1,8.1,93,0.08,-RA,,0.12,WeatherDisplay:10.37,2013-06-10 19:31:00,
2013-06-10 15:36:00,65.5,63.8,30.06,ESE,110,5.8,5.8,94,0.08,-RA,,0.13,WeatherDisplay:10.37,2013-06-10 19:36:00,
2013-06-10 15:41:00,65.3,63.6,30.06,SE,141,8.1,8.1,94,0.09,-RA,,0.14,WeatherDisplay:10.37,2013-06-10 19:41:00,
2013-06-10 15:46:00,65.1,63.4,30.05,ESE,113,5.8,5.8,94,0.09,-RA,,0.15,WeatherDisplay:10.37,2013-06-10 19:46:00,
2013-06-10 15:51:00,64.8,63.1,30.05,ESE,102,9.3,9.3,94,0.10,-RA,,0.16,WeatherDisplay:10.37,2013-06-10 19:51:00,
2013-06-10 15:56:00,64.8,63.1,30.05,East,86,4.9,4.9,94,0.12,-RA,,0.18,WeatherDisplay:10.37,2013-06-10 19:56:00,
2013-06-10 16:01:00,64.7,63.0,30.05,SE,130,3.5,0.0,94,0.13,-RA,,0.19,WeatherDisplay:10.37,2013-06-10 20:01:00,
2013-06-10 16:06:00,64.5,62.8,30.04,SE,145,12.7,12.7,94,0.13,-RA,,0.20,WeatherDisplay:10.37,2013-06-10 20:06:00,
2013-06-10 16:11:00,64.2,62.5,30.04,SE,128,6.9,6.9,94,0.14,-RA,,0.21,WeatherDisplay:10.37,2013-06-10 20:11:00,
2013-06-10 16:17:00,64.1,62.7,30.04,SSE,165,10.4,10.4,95,0.15,-RA,,0.22,WeatherDisplay:10.37,2013-06-10 20:17:00,
2013-06-10 16:22:00,64.0,62.6,30.03,ESE,121,9.2,9.2,95,0.15,RA,,0.23,WeatherDisplay:10.37,2013-06-10 20:22:00,
2013-06-10 16:27:00,63.9,62.5,30.03,East,100,9.2,9.2,95,0.15,RA,,0.25,WeatherDisplay:10.37,2013-06-10 20:27:00,
2013-06-10 16:32:00,63.8,62.4,30.03,ESE,104,9.2,9.2,95,0.13,RA,,0.25,WeatherDisplay:10.37,2013-06-10 20:32:00,
2013-06-10 16:37:00,63.7,62.3,30.03,East,82,8.1,8.1,95,0.13,RA,,0.26,WeatherDisplay:10.37,2013-06-10 20:37:00,
2013-06-10 16:42:00,63.3,61.9,30.03,East,96,4.6,4.6,95,0.13,RA,,0.27,WeatherDisplay:10.37,2013-06-10 20:42:00,
2013-06-10 16:48:00,63.3,61.9,30.03,ESE,121,6.9,6.9,95,0.12,RA,,0.27,WeatherDisplay:10.37,2013-06-10 20:48:00,
2013-06-10 16:53:00,63.3,61.9,30.03,ENE,76,5.8,5.8,95,0.13,-RA,,0.29,WeatherDisplay:10.37,2013-06-10 20:53:00,
2013-06-10 16:58:00,63.3,61.9,30.03,ESE,107,4.6,4.6,95,0.15,-RA,,0.33,WeatherDisplay:10.37,2013-06-10 20:58:00,
2013-06-10 17:03:00,63.1,61.7,30.03,SE,136,5.8,5.8,95,0.15,RA,,0.34,WeatherDisplay:10.37,2013-06-10 21:03:00,
2013-06-10 17:08:00,62.8,61.4,30.03,South,179,5.8,5.8,95,0.15,RA,,0.35,WeatherDisplay:10.37,2013-06-10 21:08:00,
2013-06-10 17:13:00,62.7,61.3,30.03,ESE,102,8.1,8.1,95,0.15,RA,,0.36,WeatherDisplay:10.37,2013-06-10 21:13:00,
2013-06-10 17:18:00,62.2,60.8,30.03,East,97,8.1,8.1,95,0.15,RA,,0.38,WeatherDisplay:10.37,2013-06-10 21:18:00,
2013-06-10 17:23:00,62.1,60.7,30.02,SE,134,3.5,0.0,95,0.14,RA,,0.38,WeatherDisplay:10.37,2013-06-10 21:23:00,
2013-06-10 17:28:00,62.0,60.6,30.03,SE,126,10.4,10.4,95,0.15,RA,,0.40,WeatherDisplay:10.37,2013-06-10 21:28:00,
2013-06-10 17:33:00,61.9,60.5,30.03,SSE,152,2.3,0.0,95,0.16,-RA,,0.41,WeatherDisplay:10.37,2013-06-10 21:33:00,
2013-06-10 17:38:00,61.8,60.4,30.02,NE,49,0.0,0.0,95,0.18,-RA,,0.44,WeatherDisplay:10.37,2013-06-10 21:38:00,
2013-06-10 17:43:00,62.0,60.6,30.02,ESE,120,4.6,4.6,95,0.19,-RA,,0.46,WeatherDisplay:10.37,2013-06-10 21:43:00,
2013-06-10 17:48:00,61.9,60.8,30.02,East,93,0.0,0.0,96,0.20,-RA,,0.47,WeatherDisplay:10.37,2013-06-10 21:48:00,
2013-06-10 17:53:00,61.9,60.8,30.01,ESE,117,9.2,9.2,96,0.18, +RA,,0.48,WeatherDisplay:10.37,2013-06-10 21:53:00,
2013-06-10 17:58:00,62.0,60.9,30.01,SE,126,1.2,1.2,96,0.16, +RA,,0.49,WeatherDisplay:10.37,2013-06-10 21:58:00,
2013-06-10 18:03:00,62.0,60.9,30.01,East,99,4.6,4.6,96,0.17,RA,,0.51,WeatherDisplay:10.37,2013-06-10 22:03:00,
2013-06-10 18:08:00,61.8,60.7,30.01,ESE,107,4.6,4.6,96,0.23,RA,,0.58,WeatherDisplay:10.37,2013-06-10 22:08:00,
2013-06-10 18:13:00,62.0,60.9,30.01,East,96,6.9,6.9,96,0.26,RA,,0.63,WeatherDisplay:10.37,2013-06-10 22:13:00,
2013-06-10 18:18:00,62.1,61.0,30.00,East,96,0.0,0.0,96,0.27,-RA,,0.64,WeatherDisplay:10.37,2013-06-10 22:18:00,
2013-06-10 18:23:00,61.9,60.8,30.00,ESE,104,10.4,10.4,96,0.28,-RA,,0.66,WeatherDisplay:10.37,2013-06-10 22:23:00,
2013-06-10 18:28:00,62.0,60.9,30.00,ESE,110,4.7,4.7,96,0.27,-RA,,0.66,WeatherDisplay:10.37,2013-06-10 22:28:00,
2013-06-10 18:33:00,61.8,60.7,30.00,ESE,121,5.8,5.8,96,0.26,-RA,,0.66,WeatherDisplay:10.37,2013-06-10 22:33:00,
2013-06-10 18:38:00,61.8,60.7,30.00,East,99,6.9,6.9,96,0.25,-RA,,0.68,WeatherDisplay:10.37,2013-06-10 22:38:00,
2013-06-10 18:43:00,61.4,60.3,30.00,SE,124,5.8,5.8,96,0.23,-RA,,0.69,WeatherDisplay:10.37,2013-06-10 22:43:00,
2013-06-10 18:48:00,61.6,60.5,30.00,ESE,103,5.8,5.8,96,0.23,-RA,,0.70,WeatherDisplay:10.37,2013-06-10 22:48:00,
2013-06-10 18:53:00,61.2,60.1,29.99,ESE,102,6.9,6.9,96,0.22,-RA,,0.70,WeatherDisplay:10.37,2013-06-10 22:53:00,
2013-06-10 18:58:00,61.2,60.1,29.99,ESE,123,5.8,5.8,96,0.21,-RA,,0.70,WeatherDisplay:10.37,2013-06-10 22:58:00,
2013-06-10 19:03:00,61.0,59.9,29.99,East,93,5.8,5.8,96,0.20,-RA,,0.71,WeatherDisplay:10.37,2013-06-10 23:03:00,
2013-06-10 19:08:00,61.0,59.9,29.99,ENE,69,0.0,0.0,96,0.14,-RA,,0.71,WeatherDisplay:10.37,2013-06-10 23:08:00,
2013-06-10 19:13:00,60.9,59.8,29.99,SSE,158,5.8,5.8,96,0.11,-RA,,0.73,WeatherDisplay:10.37,2013-06-10 23:13:00,
2013-06-10 19:18:00,60.8,59.7,29.99,ESE,117,5.8,5.8,96,0.10,-RA,,0.74,WeatherDisplay:10.37,2013-06-10 23:18:00,
2013-06-10 19:23:00,61.0,59.9,29.99,ESE,109,5.8,5.8,96,0.08,RA,,0.74,WeatherDisplay:10.37,2013-06-10 23:23:00,
2013-06-10 19:28:00,60.7,59.6,29.99,ESE,112,13.8,13.8,96,0.10,RA,,0.76,WeatherDisplay:10.37,2013-06-10 23:28:00,
2013-06-10 19:33:00,60.8,59.7,29.98,SE,127,3.5,3.5,96,0.12,RA,,0.79,WeatherDisplay:10.37,2013-06-10 23:33:00,
2013-06-10 19:38:00,60.7,59.6,29.99,NE,38,0.0,0.0,96,0.18,RA,,0.86,WeatherDisplay:10.37,2013-06-10 23:38:00,
2013-06-10 19:43:00,60.6,59.5,29.98,SE,144,5.8,5.8,96,0.20,RA,,0.89,WeatherDisplay:10.37,2013-06-10 23:43:00,
2013-06-10 19:48:00,60.7,59.6,29.99,East,97,8.1,8.1,96,0.23,RA,,0.93,WeatherDisplay:10.37,2013-06-10 23:48:00,
2013-06-10 19:53:00,60.6,59.5,29.99,ESE,104,3.5,3.5,96,0.28,RA,,0.99,WeatherDisplay:10.37,2013-06-10 23:53:00,
2013-06-10 19:58:00,60.6,59.5,29.99,South,174,7.8,7.8,96,0.31,RA,,1.02,WeatherDisplay:10.37,2013-06-10 23:58:00,
2013-06-10 20:03:00,60.3,59.2,29.99,ENE,78,8.1,8.1,96,0.34,-RA,,1.06,WeatherDisplay:10.37,2013-06-11 00:03:00,
2013-06-10 20:08:00,60.4,59.3,29.98,ESE,102,3.5,3.5,96,0.36,-RA,,1.08,WeatherDisplay:10.37,2013-06-11 00:08:00,
2013-06-10 20:13:00,60.4,59.3,29.98,ESE,112,3.5,3.5,96,0.36,-RA,,1.08,WeatherDisplay:10.37,2013-06-11 00:13:00,
2013-06-10 20:18:00,60.4,59.3,29.98,ESE,110,3.5,3.5,96,0.35,-RA,,1.09,WeatherDisplay:10.37,2013-06-11 00:18:00,
2013-06-10 20:23:00,60.4,59.3,29.98,East,85,4.6,4.6,96,0.34,-RA,,1.09,WeatherDisplay:10.37,2013-06-11 00:23:00,
2013-06-10 20:28:00,60.2,59.1,29.98,East,83,4.6,4.6,96,0.34,-RA,,1.10,WeatherDisplay:10.37,2013-06-11 00:28:00,
2013-06-10 20:33:00,60.0,58.9,29.97,ESE,112,4.6,4.6,96,0.31,-RA,,1.10,WeatherDisplay:10.37,2013-06-11 00:33:00,
2013-06-10 20:38:00,60.1,59.0,29.97,ESE,120,3.5,3.5,96,0.24,-RA,,1.10,WeatherDisplay:10.37,2013-06-11 00:38:00,
2013-06-10 20:43:00,60.3,59.2,29.97,SE,127,1.2,0.0,96,0.22,-RA,,1.11,WeatherDisplay:10.37,2013-06-11 00:43:00,
2013-06-10 20:48:00,60.1,59.0,29.97,SE,138,4.6,4.6,96,0.19,-RA,,1.11,WeatherDisplay:10.37,2013-06-11 00:48:00,
2013-06-10 20:53:00,60.1,59.0,29.97,ESE,112,3.6,3.6,96,0.13,-RA,,1.11,WeatherDisplay:10.37,2013-06-11 00:53:00,
2013-06-10 20:58:00,59.9,58.8,29.97,ESE,114,3.5,3.5,96,0.11,-RA,,1.12,WeatherDisplay:10.37,2013-06-11 00:58:00,
2013-06-10 21:03:00,60.3,59.2,29.97,East,90,0.0,0.0,96,0.08,-RA,,1.13,WeatherDisplay:10.37,2013-06-11 01:03:00,
2013-06-10 21:08:00,59.9,58.8,29.96,East,90,0.0,0.0,96,0.07,-RA,,1.14,WeatherDisplay:10.37,2013-06-11 01:08:00,
2013-06-10 21:13:00,59.9,58.8,29.96,SE,130,5.8,5.8,96,0.07,-RA,,1.15,WeatherDisplay:10.37,2013-06-11 01:13:00,
2013-06-10 21:18:00,59.9,58.8,29.96,SE,131,0.0,0.0,96,0.06,-RA,,1.15,WeatherDisplay:10.37,2013-06-11 01:18:00,
2013-06-10 21:23:00,59.9,58.8,29.96,ESE,116,6.9,6.9,96,0.07,-RA,,1.16,WeatherDisplay:10.37,2013-06-11 01:23:00,
2013-06-10 21:28:00,59.9,58.8,29.96,ESE,106,5.8,5.8,96,0.06,-RA,,1.16,WeatherDisplay:10.37,2013-06-11 01:28:00,
2013-06-10 21:33:00,60.0,58.9,29.96,East,95,5.8,5.8,96,0.06,-RA,,1.16,WeatherDisplay:10.37,2013-06-11 01:33:00,
2013-06-10 21:38:00,59.9,58.8,29.95,SE,128,4.6,4.6,96,0.06,-RA,,1.16,WeatherDisplay:10.37,2013-06-11 01:38:00,
2013-06-10 21:43:00,59.9,58.8,29.95,ESE,123,0.0,0.0,96,0.05,-RA,,1.16,WeatherDisplay:10.37,2013-06-11 01:43:00,
2013-06-10 21:48:00,59.9,58.8,29.95,SE,126,0.0,0.0,96,0.05,-RA,,1.16,WeatherDisplay:10.37,2013-06-11 01:48:00,
2013-06-10 21:53:00,60.0,58.9,29.95,ESE,110,2.3,2.3,96,0.06,-RA,,1.17,WeatherDisplay:10.37,2013-06-11 01:53:00,
2013-06-10 21:58:00,60.0,58.9,29.95,NE,54,0.0,0.0,96,0.05,-RA,,1.17,WeatherDisplay:10.37,2013-06-11 01:58:00,
2013-06-10 22:03:00,60.0,58.9,29.95,ESE,116,4.6,4.6,96,0.05,-RA,,1.18,WeatherDisplay:10.37,2013-06-11 02:03:00,
2013-06-10 22:08:00,60.0,58.9,29.95,ESE,116,0.0,0.0,96,0.05,-RA,,1.18,WeatherDisplay:10.37,2013-06-11 02:08:00,
2013-06-10 22:13:00,60.0,58.9,29.95,ESE,116,0.0,0.0,96,0.06,-RA,,1.20,WeatherDisplay:10.37,2013-06-11 02:13:00,
2013-06-10 22:18:00,59.9,58.8,29.95,East,99,8.1,8.1,96,0.06,-RA,,1.22,WeatherDisplay:10.37,2013-06-11 02:18:00,
2013-06-10 22:23:00,59.9,58.8,29.95,SE,130,2.3,2.3,96,0.08,-RA,,1.23,WeatherDisplay:10.37,2013-06-11 02:23:00,
2013-06-10 22:28:00,60.0,58.9,29.94,East,97,3.5,3.5,96,0.08,-RA,,1.24,WeatherDisplay:10.37,2013-06-11 02:28:00,
2013-06-10 22:33:00,60.0,58.9,29.94,SE,138,2.3,2.3,96,0.08,-RA,,1.25,WeatherDisplay:10.37,2013-06-11 02:33:00,
2013-06-10 22:38:00,59.9,58.8,29.94,SE,138,0.0,0.0,96,0.10,-RA,,1.26,WeatherDisplay:10.37,2013-06-11 02:38:00,
2013-06-10 22:43:00,59.9,58.8,29.94,SE,124,0.0,0.0,96,0.14,-RA,,1.30,WeatherDisplay:10.37,2013-06-11 02:43:00,
2013-06-10 22:48:00,60.0,58.9,29.93,East,93,2.3,2.3,96,0.21,RA,,1.38,WeatherDisplay:10.37,2013-06-11 02:48:00,
2013-06-10 22:53:00,59.7,58.6,29.93,East,99,5.8,5.8,96,0.25,RA,,1.42,WeatherDisplay:10.37,2013-06-11 02:53:00,
2013-06-10 22:58:00,59.7,58.6,29.93,SSE,150,0.0,0.2,96,0.30,RA,,1.47,WeatherDisplay:10.37,2013-06-11 02:58:00,
2013-06-10 23:03:00,59.9,58.8,29.93,East,96,4.6,4.6,96,0.33,-RA,,1.51,WeatherDisplay:10.37,2013-06-11 03:03:00,
2013-06-10 23:08:00,59.7,58.6,29.93,SSE,151,3.5,3.5,96,0.33,-RA,,1.51,WeatherDisplay:10.37,2013-06-11 03:08:00,
2013-06-10 23:14:00,59.8,58.7,29.93,SSE,151,0.0,0.0,96,0.32,-RA,,1.52,WeatherDisplay:10.37,2013-06-11 03:14:00,
2013-06-10 23:19:00,59.8,58.7,29.93,SSE,151,0.0,0.0,96,0.31,-RA,,1.53,WeatherDisplay:10.37,2013-06-11 03:19:00,
2013-06-10 23:24:00,59.7,58.6,29.93,SSE,151,0.0,0.0,96,0.31,-RA,,1.54,WeatherDisplay:10.37,2013-06-11 03:24:00,
2013-06-10 23:29:00,59.7,58.6,29.92,SSE,151,0.0,0.0,96,0.31,-RA,,1.55,WeatherDisplay:10.37,2013-06-11 03:29:00,
2013-06-10 23:34:00,59.6,58.5,29.91,SE,136,5.8,5.8,96,0.30,-RA,,1.55,WeatherDisplay:10.37,2013-06-11 03:34:00,
2013-06-10 23:39:00,59.7,58.6,29.92,SE,127,2.3,2.3,96,0.29,-RA,,1.55,WeatherDisplay:10.37,2013-06-11 03:39:00,
2013-06-10 23:44:00,59.6,58.5,29.91,East,95,3.5,3.5,96,0.25,-RA,,1.55,WeatherDisplay:10.37,2013-06-11 03:44:00,
2013-06-10 23:49:00,59.8,58.7,29.91,ENE,65,4.0,4.0,96,0.16,-RA,,1.55,WeatherDisplay:10.37,2013-06-11 03:49:00,
2013-06-10 23:54:00,59.7,58.6,29.91,SE,128,2.8,2.8,96,0.13,-RA,,1.55,WeatherDisplay:10.37,2013-06-11 03:54:00,
2013-06-10 23:59:00,59.7,58.6,29.91,East,86,5.8,5.8,96,0.07,-RA,,1.55,WeatherDisplay:10.37,2013-06-11 03:59:00,